sensor_id;sensor_type;location;lat;lon;timestamp;pressure;altitude;pressure_sealevel;temperature;humidity
71907;BME280;59781;52.090;5.030;2022-08-05T00:01:15;101623.78;;;19.87;73.37
71907;BME280;59781;52.090;5.030;2022-08-05T00:03:43;101613.47;;;19.83;73.41
71907;BME280;59781;52.090;5.030;2022-08-05T00:06:09;101615.78;;;19.79;74.14
71907;BME280;59781;52.090;5.030;2022-08-05T00:08:36;101617.88;;;19.84;73.30
71907;BME280;59781;52.090;5.030;2022-08-05T00:11:05;101607.38;;;19.81;74.01
71907;BME280;59781;52.090;5.030;2022-08-05T00:13:35;101603.78;;;19.80;73.87
71907;BME280;59781;52.090;5.030;2022-08-05T00:16:02;101604.25;;;19.70;74.00
71907;BME280;59781;52.090;5.030;2022-08-05T00:18:29;101606.56;;;19.60;74.99
71907;BME280;59781;52.090;5.030;2022-08-05T00:20:55;101606.53;;;19.54;75.20
71907;BME280;59781;52.090;5.030;2022-08-05T00:23:23;101615.56;;;19.54;75.09
71907;BME280;59781;52.090;5.030;2022-08-05T00:25:49;101614.34;;;19.57;74.87
71907;BME280;59781;52.090;5.030;2022-08-05T00:28:15;101612.66;;;19.56;75.72
71907;BME280;59781;52.090;5.030;2022-08-05T00:30:41;101613.09;;;19.59;75.10
71907;BME280;59781;52.090;5.030;2022-08-05T00:33:08;101604.41;;;19.75;74.10
71907;BME280;59781;52.090;5.030;2022-08-05T00:35:33;101608.00;;;19.49;75.92
71907;BME280;59781;52.090;5.030;2022-08-05T00:38:00;101599.41;;;19.59;75.65
71907;BME280;59781;52.090;5.030;2022-08-05T00:40:26;101598.53;;;19.45;76.59
71907;BME280;59781;52.090;5.030;2022-08-05T00:42:53;101605.06;;;19.44;76.86
71907;BME280;59781;52.090;5.030;2022-08-05T00:45:23;101604.84;;;19.53;76.01
71907;BME280;59781;52.090;5.030;2022-08-05T00:47:48;101609.91;;;19.56;76.35
71907;BME280;59781;52.090;5.030;2022-08-05T00:50:14;101618.09;;;19.42;77.68
71907;BME280;59781;52.090;5.030;2022-08-05T00:52:40;101612.84;;;19.34;77.59
71907;BME280;59781;52.090;5.030;2022-08-05T00:55:06;101603.38;;;19.50;77.11
71907;BME280;59781;52.090;5.030;2022-08-05T00:57:32;101601.91;;;19.54;76.15
71907;BME280;59781;52.090;5.030;2022-08-05T00:59:57;101591.44;;;19.58;76.19
71907;BME280;59781;52.090;5.030;2022-08-05T01:02:23;101599.81;;;19.43;77.22
71907;BME280;59781;52.090;5.030;2022-08-05T01:04:48;101606.34;;;19.42;77.43
71907;BME280;59781;52.090;5.030;2022-08-05T01:07:14;101616.63;;;19.40;77.79
71907;BME280;59781;52.090;5.030;2022-08-05T01:09:41;101616.63;;;19.80;75.28
71907;BME280;59781;52.090;5.030;2022-08-05T01:12:14;101606.56;;;19.47;77.05
71907;BME280;59781;52.090;5.030;2022-08-05T01:23:06;101620.00;;;19.48;77.49
71907;BME280;59781;52.090;5.030;2022-08-05T01:28:57;101615.56;;;19.34;77.99
71907;BME280;59781;52.090;5.030;2022-08-05T01:31:40;101623.34;;;19.17;79.15
71907;BME280;59781;52.090;5.030;2022-08-05T01:34:35;101635.50;;;19.15;79.71
71907;BME280;59781;52.090;5.030;2022-08-05T01:37:17;101637.84;;;19.25;78.83
71907;BME280;59781;52.090;5.030;2022-08-05T01:39:51;101638.69;;;19.18;79.72
71907;BME280;59781;52.090;5.030;2022-08-05T01:42:21;101641.19;;;19.27;78.88
71907;BME280;59781;52.090;5.030;2022-08-05T01:44:49;101639.75;;;19.31;78.87
71907;BME280;59781;52.090;5.030;2022-08-05T01:47:18;101650.88;;;19.29;78.58
71907;BME280;59781;52.090;5.030;2022-08-05T01:49:49;101658.22;;;19.22;78.59
71907;BME280;59781;52.090;5.030;2022-08-05T01:52:20;101649.19;;;19.22;78.98
71907;BME280;59781;52.090;5.030;2022-08-05T01:54:52;101648.78;;;19.38;77.37
71907;BME280;59781;52.090;5.030;2022-08-05T01:57:28;101636.59;;;19.20;78.34
71907;BME280;59781;52.090;5.030;2022-08-05T02:00:08;101638.06;;;19.36;77.43
71907;BME280;59781;52.090;5.030;2022-08-05T02:02:38;101638.47;;;19.13;78.56
71907;BME280;59781;52.090;5.030;2022-08-05T02:05:11;101625.03;;;19.18;78.22
71907;BME280;59781;52.090;5.030;2022-08-05T02:07:39;101614.31;;;19.10;78.28
71907;BME280;59781;52.090;5.030;2022-08-05T02:10:08;101625.88;;;19.12;77.77
71907;BME280;59781;52.090;5.030;2022-08-05T02:12:40;101622.69;;;19.02;78.32
71907;BME280;59781;52.090;5.030;2022-08-05T02:15:24;101623.97;;;19.00;78.88
71907;BME280;59781;52.090;5.030;2022-08-05T02:18:03;101628.59;;;18.99;79.02
71907;BME280;59781;52.090;5.030;2022-08-05T02:20:53;101623.75;;;19.01;78.78
71907;BME280;59781;52.090;5.030;2022-08-05T02:23:29;101619.53;;;19.05;78.04
71907;BME280;59781;52.090;5.030;2022-08-05T02:26:04;101618.91;;;19.16;76.83
71907;BME280;59781;52.090;5.030;2022-08-05T02:28:37;101625.47;;;19.29;75.88
71907;BME280;59781;52.090;5.030;2022-08-05T02:31:11;101629.41;;;19.06;76.97
71907;BME280;59781;52.090;5.030;2022-08-05T02:33:56;101619.75;;;19.04;76.73
71907;BME280;59781;52.090;5.030;2022-08-05T02:36:26;101618.06;;;19.03;76.89
71907;BME280;59781;52.090;5.030;2022-08-05T02:38:59;101614.50;;;18.89;76.68
71907;BME280;59781;52.090;5.030;2022-08-05T02:41:31;101607.97;;;18.97;76.85
71907;BME280;59781;52.090;5.030;2022-08-05T02:43:59;101614.94;;;19.12;75.32
71907;BME280;59781;52.090;5.030;2022-08-05T02:46:28;101607.13;;;18.96;76.24
71907;BME280;59781;52.090;5.030;2022-08-05T02:48:55;101614.25;;;18.84;77.23
71907;BME280;59781;52.090;5.030;2022-08-05T02:51:24;101614.28;;;18.90;76.18
71907;BME280;59781;52.090;5.030;2022-08-05T02:53:53;101617.00;;;18.97;75.81
71907;BME280;59781;52.090;5.030;2022-08-05T02:56:20;101613.22;;;18.85;77.18
71907;BME280;59781;52.090;5.030;2022-08-05T02:58:49;101603.13;;;18.85;76.85
71907;BME280;59781;52.090;5.030;2022-08-05T03:01:19;101611.72;;;18.76;77.72
71907;BME280;59781;52.090;5.030;2022-08-05T03:03:53;101614.28;;;18.90;76.30
71907;BME280;59781;52.090;5.030;2022-08-05T03:06:21;101605.28;;;19.10;75.66
71907;BME280;59781;52.090;5.030;2022-08-05T03:08:49;101603.56;;;18.96;76.86
71907;BME280;59781;52.090;5.030;2022-08-05T03:11:21;101617.63;;;18.79;76.99
71907;BME280;59781;52.090;5.030;2022-08-05T03:13:51;101622.44;;;18.84;76.75
71907;BME280;59781;52.090;5.030;2022-08-05T03:16:18;101623.47;;;18.76;76.94
71907;BME280;59781;52.090;5.030;2022-08-05T03:18:44;101628.59;;;18.99;76.13
71907;BME280;59781;52.090;5.030;2022-08-05T03:21:10;101621.03;;;19.01;75.90
71907;BME280;59781;52.090;5.030;2022-08-05T03:23:42;101629.41;;;18.93;75.71
71907;BME280;59781;52.090;5.030;2022-08-05T03:26:09;101626.47;;;18.88;76.30
71907;BME280;59781;52.090;5.030;2022-08-05T03:28:36;101613.88;;;19.07;75.10
71907;BME280;59781;52.090;5.030;2022-08-05T03:31:03;101614.69;;;18.87;76.11
71907;BME280;59781;52.090;5.030;2022-08-05T03:33:30;101617.63;;;18.79;76.13
71907;BME280;59781;52.090;5.030;2022-08-05T03:35:57;101619.72;;;18.84;76.18
71907;BME280;59781;52.090;5.030;2022-08-05T03:38:24;101612.97;;;18.73;76.12
71907;BME280;59781;52.090;5.030;2022-08-05T03:40:51;101622.38;;;18.64;76.87
71907;BME280;59781;52.090;5.030;2022-08-05T03:43:20;101631.59;;;18.63;76.97
71907;BME280;59781;52.090;5.030;2022-08-05T03:45:49;101623.00;;;18.59;77.60
71907;BME280;59781;52.090;5.030;2022-08-05T03:48:16;101628.69;;;18.65;77.11
71907;BME280;59781;52.090;5.030;2022-08-05T03:53:34;101628.97;;;18.83;75.99
71907;BME280;59781;52.090;5.030;2022-08-05T03:58:49;101645.31;;;18.70;76.53
71907;BME280;59781;52.090;5.030;2022-08-05T04:01:21;101646.97;;;18.77;76.05
71907;BME280;59781;52.090;5.030;2022-08-05T04:03:50;101643.66;;;18.82;75.83
71907;BME280;59781;52.090;5.030;2022-08-05T04:06:18;101641.09;;;18.74;76.08
71907;BME280;59781;52.090;5.030;2022-08-05T04:08:45;101653.28;;;18.71;76.63
71907;BME280;59781;52.090;5.030;2022-08-05T04:11:12;101653.88;;;18.67;75.80
71907;BME280;59781;52.090;5.030;2022-08-05T04:13:39;101631.97;;;18.53;76.26
71907;BME280;59781;52.090;5.030;2022-08-05T04:16:12;101639.41;;;18.66;75.17
71907;BME280;59781;52.090;5.030;2022-08-05T04:18:38;101639.59;;;18.65;75.36
71907;BME280;59781;52.090;5.030;2022-08-05T04:21:05;101645.59;;;18.47;76.26
71907;BME280;59781;52.090;5.030;2022-08-05T04:23:33;101648.31;;;18.40;76.67
71907;BME280;59781;52.090;5.030;2022-08-05T04:26:03;101651.41;;;18.30;78.19
71907;BME280;59781;52.090;5.030;2022-08-05T04:28:30;101641.28;;;18.24;78.15
71907;BME280;59781;52.090;5.030;2022-08-05T04:30:56;101639.34;;;18.12;79.06
71907;BME280;59781;52.090;5.030;2022-08-05T04:33:22;101634.66;;;18.40;76.33
71907;BME280;59781;52.090;5.030;2022-08-05T04:35:47;101638.34;;;18.19;76.47
71907;BME280;59781;52.090;5.030;2022-08-05T04:38:13;101645.03;;;18.17;76.13
71907;BME280;59781;52.090;5.030;2022-08-05T04:40:39;101647.97;;;18.15;75.61
71907;BME280;59781;52.090;5.030;2022-08-05T04:43:06;101648.31;;;18.05;76.01
71907;BME280;59781;52.090;5.030;2022-08-05T04:45:32;101653.94;;;17.97;75.53
71907;BME280;59781;52.090;5.030;2022-08-05T04:48:08;101658.88;;;17.81;76.12
71907;BME280;59781;52.090;5.030;2022-08-05T04:53:14;101652.84;;;17.92;75.62
71907;BME280;59781;52.090;5.030;2022-08-05T04:55:42;101649.88;;;17.87;75.94
71907;BME280;59781;52.090;5.030;2022-08-05T04:58:12;101653.56;;;17.72;77.09
71907;BME280;59781;52.090;5.030;2022-08-05T05:00:40;101653.63;;;17.58;78.13
71907;BME280;59781;52.090;5.030;2022-08-05T05:03:08;101653.69;;;17.64;78.06
71907;BME280;59781;52.090;5.030;2022-08-05T05:05:36;101660.34;;;17.83;76.25
71907;BME280;59781;52.090;5.030;2022-08-05T05:08:07;101657.25;;;17.65;77.89
71907;BME280;59781;52.090;5.030;2022-08-05T05:10:44;101653.03;;;17.62;77.98
71907;BME280;59781;52.090;5.030;2022-08-05T05:13:14;101652.94;;;17.77;77.06
71907;BME280;59781;52.090;5.030;2022-08-05T05:15:42;101655.56;;;17.64;78.13
71907;BME280;59781;52.090;5.030;2022-08-05T05:18:16;101651.06;;;17.77;77.28
71907;BME280;59781;52.090;5.030;2022-08-05T05:20:43;101647.97;;;17.81;77.55
71907;BME280;59781;52.090;5.030;2022-08-05T05:23:10;101639.72;;;18.02;76.09
71907;BME280;59781;52.090;5.030;2022-08-05T05:25:40;101643.34;;;18.16;74.92
71907;BME280;59781;52.090;5.030;2022-08-05T05:28:08;101651.88;;;18.41;73.53
71907;BME280;59781;52.090;5.030;2022-08-05T05:30:36;101648.97;;;18.55;73.69
71907;BME280;59781;52.090;5.030;2022-08-05T05:33:04;101648.03;;;18.76;72.46
71907;BME280;59781;52.090;5.030;2022-08-05T05:35:33;101641.56;;;18.97;71.25
71907;BME280;59781;52.090;5.030;2022-08-05T05:38:01;101650.66;;;19.11;70.40
71907;BME280;59781;52.090;5.030;2022-08-05T05:40:31;101650.69;;;19.37;69.50
71907;BME280;59781;52.090;5.030;2022-08-05T05:42:58;101648.22;;;20.33;65.99
71907;BME280;59781;52.090;5.030;2022-08-05T05:45:24;101652.19;;;20.57;63.39
71907;BME280;59781;52.090;5.030;2022-08-05T05:47:50;101650.50;;;20.56;63.62
71907;BME280;59781;52.090;5.030;2022-08-05T05:50:18;101649.72;;;20.87;62.25
71907;BME280;59781;52.090;5.030;2022-08-05T05:52:45;101653.19;;;21.01;60.67
71907;BME280;59781;52.090;5.030;2022-08-05T05:55:13;101656.22;;;21.25;59.68
71907;BME280;59781;52.090;5.030;2022-08-05T05:57:43;101646.53;;;21.54;57.92
71907;BME280;59781;52.090;5.030;2022-08-05T06:00:12;101644.22;;;21.75;58.11
71907;BME280;59781;52.090;5.030;2022-08-05T06:02:41;101650.63;;;21.88;57.45
71907;BME280;59781;52.090;5.030;2022-08-05T06:05:09;101645.28;;;22.18;56.50
71907;BME280;59781;52.090;5.030;2022-08-05T06:07:36;101646.88;;;21.82;55.86
71907;BME280;59781;52.090;5.030;2022-08-05T06:10:05;101657.56;;;22.15;54.74
71907;BME280;59781;52.090;5.030;2022-08-05T06:12:33;101645.59;;;22.76;53.43
71907;BME280;59781;52.090;5.030;2022-08-05T06:15:02;101651.03;;;22.65;54.16
71907;BME280;59781;52.090;5.030;2022-08-05T06:17:28;101653.56;;;23.26;50.99
71907;BME280;59781;52.090;5.030;2022-08-05T06:19:54;101659.06;;;23.38;50.64
71907;BME280;59781;52.090;5.030;2022-08-05T06:22:24;101661.34;;;22.99;51.79
71907;BME280;59781;52.090;5.030;2022-08-05T06:24:52;101659.78;;;23.33;49.74
71907;BME280;59781;52.090;5.030;2022-08-05T06:27:18;101660.47;;;23.82;49.11
71907;BME280;59781;52.090;5.030;2022-08-05T06:29:44;101668.81;;;23.87;49.83
71907;BME280;59781;52.090;5.030;2022-08-05T06:32:10;101664.16;;;23.76;49.22
71907;BME280;59781;52.090;5.030;2022-08-05T06:34:36;101679.84;;;23.64;50.96
71907;BME280;59781;52.090;5.030;2022-08-05T06:37:02;101685.44;;;24.16;48.85
71907;BME280;59781;52.090;5.030;2022-08-05T06:39:28;101691.69;;;24.11;49.71
71907;BME280;59781;52.090;5.030;2022-08-05T06:41:59;101684.97;;;23.72;50.86
71907;BME280;59781;52.090;5.030;2022-08-05T06:44:28;101690.50;;;24.19;49.47
71907;BME280;59781;52.090;5.030;2022-08-05T06:46:55;101697.91;;;24.82;47.23
71907;BME280;59781;52.090;5.030;2022-08-05T06:49:21;101696.78;;;24.54;48.77
71907;BME280;59781;52.090;5.030;2022-08-05T06:51:47;101701.75;;;24.41;49.22
71907;BME280;59781;52.090;5.030;2022-08-05T06:54:13;101691.81;;;24.40;47.58
71907;BME280;59781;52.090;5.030;2022-08-05T06:56:38;101703.66;;;24.40;48.26
71907;BME280;59781;52.090;5.030;2022-08-05T06:59:05;101697.13;;;24.70;45.18
71907;BME280;59781;52.090;5.030;2022-08-05T07:01:32;101699.50;;;24.78;45.79
71907;BME280;59781;52.090;5.030;2022-08-05T07:04:00;101690.28;;;25.29;42.97
71907;BME280;59781;52.090;5.030;2022-08-05T07:06:26;101693.59;;;24.34;43.53
71907;BME280;59781;52.090;5.030;2022-08-05T07:08:52;101688.84;;;25.27;43.03
71907;BME280;59781;52.090;5.030;2022-08-05T07:11:18;101699.19;;;25.98;41.32
71907;BME280;59781;52.090;5.030;2022-08-05T07:13:44;101703.09;;;26.19;41.13
71907;BME280;59781;52.090;5.030;2022-08-05T07:16:29;101702.28;;;25.85;38.44
71907;BME280;59781;52.090;5.030;2022-08-05T07:19:13;101701.41;;;26.18;39.36
71907;BME280;59781;52.090;5.030;2022-08-05T07:21:39;101711.56;;;26.35;38.91
71907;BME280;59781;52.090;5.030;2022-08-05T07:24:05;101715.91;;;25.75;39.86
71907;BME280;59781;52.090;5.030;2022-08-05T07:26:32;101726.84;;;24.96;40.85
71907;BME280;59781;52.090;5.030;2022-08-05T07:28:58;101722.69;;;25.67;39.78
71907;BME280;59781;52.090;5.030;2022-08-05T07:31:23;101729.78;;;26.14;40.26
71907;BME280;59781;52.090;5.030;2022-08-05T07:33:49;101736.69;;;26.33;38.93
71907;BME280;59781;52.090;5.030;2022-08-05T07:36:15;101728.84;;;26.25;38.02
71907;BME280;59781;52.090;5.030;2022-08-05T07:38:40;101739.19;;;25.79;38.61
71907;BME280;59781;52.090;5.030;2022-08-05T07:41:09;101751.44;;;26.05;38.98
71907;BME280;59781;52.090;5.030;2022-08-05T07:43:37;101748.41;;;26.23;38.61
71907;BME280;59781;52.090;5.030;2022-08-05T07:46:02;101747.22;;;26.53;36.12
71907;BME280;59781;52.090;5.030;2022-08-05T07:48:28;101754.81;;;26.07;36.39
71907;BME280;59781;52.090;5.030;2022-08-05T07:50:54;101754.53;;;26.42;36.57
71907;BME280;59781;52.090;5.030;2022-08-05T07:53:19;101754.94;;;26.51;36.17
71907;BME280;59781;52.090;5.030;2022-08-05T07:55:45;101770.97;;;26.54;36.63
71907;BME280;59781;52.090;5.030;2022-08-05T07:58:11;101758.88;;;26.77;35.11
71907;BME280;59781;52.090;5.030;2022-08-05T08:00:36;101757.50;;;26.57;36.81
71907;BME280;59781;52.090;5.030;2022-08-05T08:03:02;101769.66;;;27.22;35.92
71907;BME280;59781;52.090;5.030;2022-08-05T08:05:28;101775.16;;;27.71;33.60
71907;BME280;59781;52.090;5.030;2022-08-05T08:07:54;101773.28;;;27.77;34.27
71907;BME280;59781;52.090;5.030;2022-08-05T08:10:21;101776.16;;;27.92;35.59
71907;BME280;59781;52.090;5.030;2022-08-05T08:12:48;101774.97;;;28.15;34.45
71907;BME280;59781;52.090;5.030;2022-08-05T08:15:14;101782.56;;;28.29;34.72
71907;BME280;59781;52.090;5.030;2022-08-05T08:17:41;101784.31;;;28.41;34.33
71907;BME280;59781;52.090;5.030;2022-08-05T08:20:08;101796.16;;;26.96;36.08
71907;BME280;59781;52.090;5.030;2022-08-05T08:22:34;101793.94;;;25.70;39.32
71907;BME280;59781;52.090;5.030;2022-08-05T08:24:59;101794.13;;;25.24;41.04
71907;BME280;59781;52.090;5.030;2022-08-05T08:27:25;101801.91;;;24.75;42.62
71907;BME280;59781;52.090;5.030;2022-08-05T08:29:51;101800.81;;;24.76;41.21
71907;BME280;59781;52.090;5.030;2022-08-05T08:32:17;101806.63;;;24.39;44.29
71907;BME280;59781;52.090;5.030;2022-08-05T08:34:42;101810.06;;;24.35;44.21
71907;BME280;59781;52.090;5.030;2022-08-05T08:37:08;101806.63;;;23.86;46.19
71907;BME280;59781;52.090;5.030;2022-08-05T08:39:34;101808.47;;;24.03;44.55
71907;BME280;59781;52.090;5.030;2022-08-05T08:42:00;101812.28;;;23.91;44.63
71907;BME280;59781;52.090;5.030;2022-08-05T08:44:31;101815.22;;;24.43;44.49
71907;BME280;59781;52.090;5.030;2022-08-05T08:46:57;101811.59;;;26.37;41.65
71907;BME280;59781;52.090;5.030;2022-08-05T08:49:30;101811.84;;;25.56;41.89
71907;BME280;59781;52.090;5.030;2022-08-05T08:52:22;101818.56;;;24.33;43.39
71907;BME280;59781;52.090;5.030;2022-08-05T08:54:51;101817.72;;;24.68;43.25
71907;BME280;59781;52.090;5.030;2022-08-05T08:57:17;101821.56;;;24.43;43.34
71907;BME280;59781;52.090;5.030;2022-08-05T08:59:45;101818.91;;;25.35;42.22
71907;BME280;59781;52.090;5.030;2022-08-05T09:02:11;101822.44;;;25.76;40.67
71907;BME280;59781;52.090;5.030;2022-08-05T09:04:38;101820.34;;;27.28;38.71
71907;BME280;59781;52.090;5.030;2022-08-05T09:07:07;101822.22;;;26.62;37.75
71907;BME280;59781;52.090;5.030;2022-08-05T09:09:34;101829.75;;;26.33;38.48
71907;BME280;59781;52.090;5.030;2022-08-05T09:12:02;101833.31;;;25.26;37.98
71907;BME280;59781;52.090;5.030;2022-08-05T09:14:36;101841.06;;;24.88;37.63
71907;BME280;59781;52.090;5.030;2022-08-05T09:17:05;101845.00;;;25.04;39.24
71907;BME280;59781;52.090;5.030;2022-08-05T09:19:34;101848.22;;;25.01;37.93
71907;BME280;59781;52.090;5.030;2022-08-05T09:22:00;101857.03;;;24.40;42.55
71907;BME280;59781;52.090;5.030;2022-08-05T09:24:26;101862.16;;;23.94;44.34
71907;BME280;59781;52.090;5.030;2022-08-05T09:26:55;101873.91;;;23.41;47.14
71907;BME280;59781;52.090;5.030;2022-08-05T09:29:40;101877.56;;;23.17;47.38
71907;BME280;59781;52.090;5.030;2022-08-05T09:32:10;101872.81;;;22.87;48.19
71907;BME280;59781;52.090;5.030;2022-08-05T09:34:53;101878.72;;;22.66;48.41
71907;BME280;59781;52.090;5.030;2022-08-05T09:37:25;101879.38;;;22.43;48.88
71907;BME280;59781;52.090;5.030;2022-08-05T09:39:53;101883.94;;;22.24;49.00
71907;BME280;59781;52.090;5.030;2022-08-05T09:42:21;101882.53;;;22.15;49.59
71907;BME280;59781;52.090;5.030;2022-08-05T09:44:49;101885.50;;;22.14;49.54
71907;BME280;59781;52.090;5.030;2022-08-05T09:47:24;101889.53;;;22.11;49.31
71907;BME280;59781;52.090;5.030;2022-08-05T09:49:53;101893.50;;;22.15;48.56
71907;BME280;59781;52.090;5.030;2022-08-05T09:52:30;101903.03;;;22.06;48.58
71907;BME280;59781;52.090;5.030;2022-08-05T09:55:03;101893.91;;;22.19;47.05
71907;BME280;59781;52.090;5.030;2022-08-05T09:57:39;101893.13;;;22.05;46.00
71907;BME280;59781;52.090;5.030;2022-08-05T10:00:14;101900.19;;;22.51;45.44
71907;BME280;59781;52.090;5.030;2022-08-05T10:02:45;101901.75;;;22.40;47.09
71907;BME280;59781;52.090;5.030;2022-08-05T10:05:22;101904.78;;;22.32;45.37
71907;BME280;59781;52.090;5.030;2022-08-05T10:10:16;101906.06;;;22.29;46.29
71907;BME280;59781;52.090;5.030;2022-08-05T10:15:23;101907.66;;;22.44;44.35
71907;BME280;59781;52.090;5.030;2022-08-05T10:18:12;101911.28;;;22.06;43.70
71907;BME280;59781;52.090;5.030;2022-08-05T10:20:54;101917.63;;;22.00;42.18
71907;BME280;59781;52.090;5.030;2022-08-05T10:23:24;101926.81;;;22.19;42.58
71907;BME280;59781;52.090;5.030;2022-08-05T10:25:54;101926.66;;;22.14;43.22
71907;BME280;59781;52.090;5.030;2022-08-05T10:28:21;101923.72;;;22.09;40.74
71907;BME280;59781;52.090;5.030;2022-08-05T10:30:47;101922.72;;;22.35;38.91
71907;BME280;59781;52.090;5.030;2022-08-05T10:33:13;101914.91;;;22.31;38.28
71907;BME280;59781;52.090;5.030;2022-08-05T10:35:39;101924.56;;;22.66;36.66
71907;BME280;59781;52.090;5.030;2022-08-05T10:38:06;101935.66;;;22.77;37.47
71907;BME280;59781;52.090;5.030;2022-08-05T10:43:42;101940.53;;;22.75;37.91
71907;BME280;59781;52.090;5.030;2022-08-05T10:46:16;101940.31;;;23.02;37.88
71907;BME280;59781;52.090;5.030;2022-08-05T10:48:45;101942.22;;;23.38;37.26
71907;BME280;59781;52.090;5.030;2022-08-05T10:51:17;101955.22;;;23.31;39.23
71907;BME280;59781;52.090;5.030;2022-08-05T10:56:26;101956.47;;;22.92;42.67
71907;BME280;59781;52.090;5.030;2022-08-05T11:01:34;101964.53;;;23.11;43.59
71907;BME280;59781;52.090;5.030;2022-08-05T11:10:11;101960.94;;;23.29;41.36
71907;BME280;59781;52.090;5.030;2022-08-05T11:12:46;101961.56;;;23.68;42.53
71907;BME280;59781;52.090;5.030;2022-08-05T11:17:42;101976.16;;;23.50;41.38
71907;BME280;59781;52.090;5.030;2022-08-05T11:23:50;101989.56;;;23.58;41.92
71907;BME280;59781;52.090;5.030;2022-08-05T11:28:48;101991.31;;;23.16;43.50
71907;BME280;59781;52.090;5.030;2022-08-05T11:31:23;101987.78;;;23.09;44.29
71907;BME280;59781;52.090;5.030;2022-08-05T11:33:59;102003.41;;;23.33;43.35
71907;BME280;59781;52.090;5.030;2022-08-05T11:36:44;102004.72;;;23.31;43.40
71907;BME280;59781;52.090;5.030;2022-08-05T11:39:15;102007.44;;;23.12;43.44
71907;BME280;59781;52.090;5.030;2022-08-05T11:41:49;102011.56;;;22.97;42.41
71907;BME280;59781;52.090;5.030;2022-08-05T11:44:19;102021.63;;;22.78;42.02
71907;BME280;59781;52.090;5.030;2022-08-05T11:46:51;102017.31;;;22.64;44.27
71907;BME280;59781;52.090;5.030;2022-08-05T11:49:20;102018.91;;;22.46;45.21
71907;BME280;59781;52.090;5.030;2022-08-05T11:51:51;102022.13;;;22.37;46.04
71907;BME280;59781;52.090;5.030;2022-08-05T11:54:25;102033.50;;;22.40;46.74
71907;BME280;59781;52.090;5.030;2022-08-05T11:56:54;102033.66;;;22.52;45.90
71907;BME280;59781;52.090;5.030;2022-08-05T11:59:27;102036.03;;;23.05;45.08
71907;BME280;59781;52.090;5.030;2022-08-05T12:04:19;102033.41;;;24.08;43.95
71907;BME280;59781;52.090;5.030;2022-08-05T12:06:46;102037.47;;;24.06;43.85
71907;BME280;59781;52.090;5.030;2022-08-05T12:09:17;102038.31;;;24.06;42.61
71907;BME280;59781;52.090;5.030;2022-08-05T12:11:47;102040.88;;;24.38;42.94
71907;BME280;59781;52.090;5.030;2022-08-05T12:14:14;102040.41;;;24.82;41.64
71907;BME280;59781;52.090;5.030;2022-08-05T12:16:41;102042.94;;;24.96;41.40
71907;BME280;59781;52.090;5.030;2022-08-05T12:19:10;102046.94;;;25.00;40.88
71907;BME280;59781;52.090;5.030;2022-08-05T12:21:45;102056.69;;;24.72;42.52
71907;BME280;59781;52.090;5.030;2022-08-05T12:24:20;102061.56;;;24.58;40.67
71907;BME280;59781;52.090;5.030;2022-08-05T12:26:51;102054.94;;;24.48;39.32
71907;BME280;59781;52.090;5.030;2022-08-05T12:29:21;102063.38;;;24.65;41.08
71907;BME280;59781;52.090;5.030;2022-08-05T12:31:56;102052.00;;;25.26;39.23
71907;BME280;59781;52.090;5.030;2022-08-05T12:34:26;102055.22;;;25.82;38.33
71907;BME280;59781;52.090;5.030;2022-08-05T12:36:59;102055.59;;;25.38;38.92
71907;BME280;59781;52.090;5.030;2022-08-05T12:39:31;102055.16;;;24.46;42.36
71907;BME280;59781;52.090;5.030;2022-08-05T12:41:58;102068.41;;;24.38;42.27
71907;BME280;59781;52.090;5.030;2022-08-05T12:44:25;102065.63;;;24.56;40.89
71907;BME280;59781;52.090;5.030;2022-08-05T12:46:53;102067.81;;;25.07;40.23
71907;BME280;59781;52.090;5.030;2022-08-05T12:49:21;102074.84;;;24.50;40.46
71907;BME280;59781;52.090;5.030;2022-08-05T12:51:50;102062.41;;;25.36;37.70
71907;BME280;59781;52.090;5.030;2022-08-05T12:54:23;102078.75;;;24.84;39.71
71907;BME280;59781;52.090;5.030;2022-08-05T12:57:02;102078.41;;;24.80;39.19
71907;BME280;59781;52.090;5.030;2022-08-05T12:59:32;102067.94;;;25.59;37.07
71907;BME280;59781;52.090;5.030;2022-08-05T13:02:09;102078.13;;;24.70;37.39
71907;BME280;59781;52.090;5.030;2022-08-05T13:04:41;102070.00;;;26.56;34.08
71907;BME280;59781;52.090;5.030;2022-08-05T13:07:10;102080.63;;;27.09;33.68
71907;BME280;59781;52.090;5.030;2022-08-05T13:09:42;102082.56;;;26.64;33.38
71907;BME280;59781;52.090;5.030;2022-08-05T13:12:17;102081.25;;;25.62;34.73
71907;BME280;59781;52.090;5.030;2022-08-05T13:15:05;102091.09;;;25.82;34.79
71907;BME280;59781;52.090;5.030;2022-08-05T13:17:34;102091.22;;;26.27;32.58
71907;BME280;59781;52.090;5.030;2022-08-05T13:20:14;102084.03;;;26.26;32.94
71907;BME280;59781;52.090;5.030;2022-08-05T13:22:49;102087.03;;;25.72;34.26
71907;BME280;59781;52.090;5.030;2022-08-05T13:25:18;102087.56;;;26.50;34.68
71907;BME280;59781;52.090;5.030;2022-08-05T13:27:48;102086.25;;;26.69;33.05
71907;BME280;59781;52.090;5.030;2022-08-05T13:30:18;102088.94;;;26.24;31.89
71907;BME280;59781;52.090;5.030;2022-08-05T13:32:46;102098.75;;;25.91;34.38
71907;BME280;59781;52.090;5.030;2022-08-05T13:35:14;102097.53;;;25.99;32.86
71907;BME280;59781;52.090;5.030;2022-08-05T13:37:41;102105.28;;;26.37;34.78
71907;BME280;59781;52.090;5.030;2022-08-05T13:40:08;102103.91;;;25.64;33.61
71907;BME280;59781;52.090;5.030;2022-08-05T13:42:34;102099.91;;;26.19;31.97
71907;BME280;59781;52.090;5.030;2022-08-05T13:45:01;102110.19;;;26.23;33.48
71907;BME280;59781;52.090;5.030;2022-08-05T13:47:28;102113.75;;;25.84;35.10
71907;BME280;59781;52.090;5.030;2022-08-05T13:49:54;102113.75;;;26.07;33.32
71907;BME280;59781;52.090;5.030;2022-08-05T13:52:25;102102.94;;;26.06;34.52